Airport View

Enter AWOS ICAO identifier for current METAR.

ex. KFNL

KMGE 080856Z AUTO 27005KT 10SM OVC009 17/15 A2987 RMK AO2 DZB07E23 SLP109 P0000 60000 T01700148 57022 $

8 Apr 2020 09:19

Other Area AWOS: KRYY - KFTY - KPDK - KATL

TAF KMGE 080500Z 0805/0911 VRB06KT 9999 SCT015 BKN045 BKN150 510062 QNH2983INS BECMG 0817/0818 28010G15KT 8000 -SHRA FEW035 SCT050 BKN090 510062 QNH2978INS BECMG 0900/0901 VRB06KT 8000 BR SCT013 510062 QNH2977INS BECMG 0905/0906 26006KT 8000 BR BKN006 510062 QNH2976INS BECMG 0908/0909 VRB06KT 8000 -SHRA VCTS BKN005CB OVC015 510052 QNH2975INS TX25/0820Z TN15/0806Z